»·PEaware :: SWA157 KLAS-KBUR

SWA157 :: KLAS-KBUR

FLIGHT INFORMATION

Flight Status: Arrived
Operator:
Southwest Airlines
More flights by this operator :: More flights under this callsign
Pilot: Ben F. (2808)
Aircraft: BOEING 737-300
(B733)
More flights by this aircraft type
Origin: KLAS McCarran Intl
United States
Destination: KBUR Bob Hope-Burbank
United States
More flights between these airports :: More routes between these airports
Route: +BOACH8 HEC LYNXX8
File this flight plan on PilotEdge
Remarks:
Altitude:
(Current/Filed)
22,000ft
Speed:
(Current/Filed)
461kts
Departed: 16-Apr-18 12:32 PM
Arrived: 16-Apr-18 01:26 PM
Distance/Time
Traveled:
193nm/0:54
Distance/Time
To Go:
Arrived

Flight Plot

Page will automatically refresh every two minutes.

Flight plan parsing failed; only flown route is shown


Map Options




Map Legend


Flown Route
Filed Route
Departure Airport
Arrival Airport
Navaid (VOR, NDB)
Fix

Horizontal Profiles

Position Reports

Time Latitude Longitude Heading Altitude Ground
Speed
16-Apr-18 12:00 36.079781 -115.146272 342 2148ft 0kts
16-Apr-18 12:01 36.079781 -115.146272 342 2148ft 0kts
16-Apr-18 12:02 36.079781 -115.146272 342 2148ft 0kts
16-Apr-18 12:03 36.079781 -115.146272 342 2148ft 0kts
16-Apr-18 12:04 36.079781 -115.146272 342 2148ft 0kts
16-Apr-18 12:05 36.079781 -115.146272 342 2148ft 0kts
16-Apr-18 12:06 36.079781 -115.146272 342 2148ft 0kts
16-Apr-18 12:07 36.079781 -115.146272 342 2148ft 0kts
16-Apr-18 12:08 36.079781 -115.146272 342 2148ft 0kts
16-Apr-18 12:09 36.079781 -115.146273 342 2148ft 0kts
16-Apr-18 12:10 36.079781 -115.146272 342 2148ft 0kts
16-Apr-18 12:11 36.079781 -115.146272 342 2148ft 0kts
16-Apr-18 12:12 36.079781 -115.146272 342 2148ft 0kts
16-Apr-18 12:13 36.079781 -115.146272 341 2148ft 0kts
16-Apr-18 12:14 36.079345 -115.146041 317 2148ft 2kts
16-Apr-18 12:15 36.079193 -115.145358 252 2148ft 2kts
16-Apr-18 12:16 36.079631 -115.144896 186 2148ft 2kts
16-Apr-18 12:17 36.079733 -115.144890 180 2148ft 0kts
16-Apr-18 12:18 36.079636 -115.144893 182 2148ft 1kts
16-Apr-18 12:19 36.078841 -115.144909 178 2148ft 3kts
16-Apr-18 12:20 36.078587 -115.148355 273 2148ft 15kts
16-Apr-18 12:21 36.079170 -115.153575 333 2148ft 13kts
16-Apr-18 12:22 36.082768 -115.155678 333 2148ft 15kts
16-Apr-18 12:23 36.087088 -115.157947 15 2148ft 18kts
16-Apr-18 12:24 36.092199 -115.154999 24 2148ft 22kts
16-Apr-18 12:25 36.096707 -115.152419 27 2148ft 0kts
16-Apr-18 12:26 36.097732 -115.152128 329 2148ft 5kts
16-Apr-18 12:27 36.098012 -115.152529 299 2148ft 0kts
16-Apr-18 12:28 36.098073 -115.152663 298 2148ft 6kts
16-Apr-18 12:29 36.097701 -115.154053 203 2148ft 0kts
16-Apr-18 12:30 36.097646 -115.154084 204 2148ft 3kts
16-Apr-18 12:31 36.073792 -115.168061 206 2422ft 168kts
16-Apr-18 12:32 36.025882 -115.195787 206 4315ft 216kts
16-Apr-18 12:33 35.989303 -115.260788 238 6615ft 250kts
16-Apr-18 12:34 35.935949 -115.305050 190 8437ft 253kts
16-Apr-18 12:35 35.866245 -115.313820 190 11042ft 269kts
16-Apr-18 12:36 35.786374 -115.306960 181 13094ft 308kts
16-Apr-18 12:37 35.698372 -115.298674 192 15357ft 322kts
16-Apr-18 12:38 35.629253 -115.360531 226 17870ft 319kts
16-Apr-18 12:39 35.569315 -115.441074 226 20128ft 327kts
16-Apr-18 12:40 35.507255 -115.524447 226 21847ft 335kts
16-Apr-18 12:41 35.440767 -115.613392 226 21896ft 365kts
16-Apr-18 12:42 35.379745 -115.695065 226 21912ft 365kts
16-Apr-18 12:43 35.311446 -115.786150 226 21936ft 364kts
16-Apr-18 12:44 35.245934 -115.873223 226 21963ft 363kts
16-Apr-18 12:45 35.177568 -115.963847 226 21983ft 363kts
16-Apr-18 12:46 35.109278 -116.054125 226 21982ft 363kts
16-Apr-18 12:47 35.041269 -116.143764 226 21983ft 363kts
16-Apr-18 12:48 34.973298 -116.233019 226 21981ft 366kts
16-Apr-18 12:49 34.904893 -116.322552 227 21965ft 369kts
16-Apr-18 12:50 34.839543 -116.407445 227 21941ft 370kts
16-Apr-18 12:51 34.787603 -116.508783 257 21942ft 379kts
16-Apr-18 12:52 34.776917 -116.636626 259 21937ft 380kts
16-Apr-18 12:53 34.766724 -116.757593 259 21937ft 380kts
16-Apr-18 12:54 34.755522 -116.885111 258 21937ft 379kts
16-Apr-18 12:55 34.742694 -117.011636 258 21958ft 376kts
16-Apr-18 12:56 34.729961 -117.137344 258 21985ft 374kts
16-Apr-18 12:57 34.717148 -117.262607 258 21992ft 374kts
16-Apr-18 12:58 34.704261 -117.387388 258 21871ft 367kts
16-Apr-18 12:59 34.692383 -117.501573 258 19676ft 320kts
16-Apr-18 13:00 34.681447 -117.603864 257 17924ft 298kts
16-Apr-18 13:01 34.671611 -117.695649 257 16422ft 297kts
16-Apr-18 13:02 34.661410 -117.790314 258 14817ft 296kts
16-Apr-18 13:03 34.651055 -117.885057 257 13948ft 280kts
16-Apr-18 13:04 34.641298 -117.973683 258 12905ft 279kts
16-Apr-18 13:05 34.631506 -118.062248 255 11923ft 275kts
16-Apr-18 13:06 34.613663 -118.143882 252 10466ft 249kts
16-Apr-18 13:07 34.596647 -118.220340 252 9668ft 233kts
16-Apr-18 13:08 34.580459 -118.292952 252 8553ft 222kts
16-Apr-18 13:09 34.567237 -118.352015 251 7964ft 218kts
16-Apr-18 13:10 34.551464 -118.423686 254 8047ft 214kts
16-Apr-18 13:11 34.524107 -118.480888 221 7535ft 205kts
16-Apr-18 13:12 34.483781 -118.528705 222 6139ft 207kts
16-Apr-18 13:13 34.446222 -118.574825 222 6071ft 176kts
16-Apr-18 13:14 34.413169 -118.614905 222 6024ft 172kts
16-Apr-18 13:15 34.380293 -118.652698 222 6022ft 169kts
16-Apr-18 13:16 34.346560 -118.688837 222 6021ft 168kts
16-Apr-18 13:17 34.310564 -118.724441 221 6021ft 168kts
16-Apr-18 13:18 34.267496 -118.734320 154 5735ft 204kts
16-Apr-18 13:19 34.238831 -118.673436 121 4662ft 210kts
16-Apr-18 13:20 34.215162 -118.613273 106 3953ft 201kts
16-Apr-18 13:21 34.203560 -118.547820 106 3134ft 199kts
16-Apr-18 13:22 34.199112 -118.487666 93 2852ft 183kts
16-Apr-18 13:23 34.198676 -118.432599 94 1851ft 151kts
16-Apr-18 13:24 34.198239 -118.384515 95 1083ft 142kts
16-Apr-18 13:25 34.197669 -118.351887 92 783ft 30kts
16-Apr-18 13:26 34.197183 -118.351843 249 783ft 4kts
16-Apr-18 13:27 34.196843 -118.351973 179 783ft 0kts
16-Apr-18 13:28 34.196843 -118.351973 179 783ft 0kts

Navigation Log

Ident Type
Flight plan parsing failed, navigation log unavailable